sensor_id;sensor_type;location;lat;lon;timestamp;P1;durP1;ratioP1;P2;durP2;ratioP2
26474;SDS011;14161;52.270;10.334;2022-08-19T00:01:52;4.00;;;3.58;;
26474;SDS011;14161;52.270;10.334;2022-08-19T00:04:20;6.05;;;4.00;;
26474;SDS011;14161;52.270;10.334;2022-08-19T00:06:47;4.53;;;3.53;;
26474;SDS011;14161;52.270;10.334;2022-08-19T00:09:14;4.75;;;3.80;;
26474;SDS011;14161;52.270;10.334;2022-08-19T00:11:41;4.88;;;3.63;;
26474;SDS011;14161;52.270;10.334;2022-08-19T00:14:08;4.18;;;3.72;;
26474;SDS011;14161;52.270;10.334;2022-08-19T00:16:35;4.55;;;3.83;;
26474;SDS011;14161;52.270;10.334;2022-08-19T00:19:02;6.43;;;3.72;;
26474;SDS011;14161;52.270;10.334;2022-08-19T00:21:28;4.93;;;3.38;;
26474;SDS011;14161;52.270;10.334;2022-08-19T00:23:54;5.30;;;3.58;;
26474;SDS011;14161;52.270;10.334;2022-08-19T00:26:22;6.28;;;3.75;;
26474;SDS011;14161;52.270;10.334;2022-08-19T00:28:47;5.40;;;3.60;;
26474;SDS011;14161;52.270;10.334;2022-08-19T00:31:13;5.63;;;3.33;;
26474;SDS011;14161;52.270;10.334;2022-08-19T00:33:38;6.75;;;3.30;;
26474;SDS011;14161;52.270;10.334;2022-08-19T00:36:05;3.55;;;3.25;;
26474;SDS011;14161;52.270;10.334;2022-08-19T00:38:32;6.05;;;3.80;;
26474;SDS011;14161;52.270;10.334;2022-08-19T00:40:58;6.47;;;3.88;;
26474;SDS011;14161;52.270;10.334;2022-08-19T00:43:24;4.45;;;3.50;;
26474;SDS011;14161;52.270;10.334;2022-08-19T00:45:51;6.05;;;3.75;;
26474;SDS011;14161;52.270;10.334;2022-08-19T00:48:17;6.35;;;3.63;;
26474;SDS011;14161;52.270;10.334;2022-08-19T00:50:43;6.38;;;3.78;;
26474;SDS011;14161;52.270;10.334;2022-08-19T00:53:09;5.55;;;3.10;;
26474;SDS011;14161;52.270;10.334;2022-08-19T00:55:36;4.90;;;3.55;;
26474;SDS011;14161;52.270;10.334;2022-08-19T00:58:04;5.07;;;3.75;;
26474;SDS011;14161;52.270;10.334;2022-08-19T01:00:32;5.55;;;3.80;;
26474;SDS011;14161;52.270;10.334;2022-08-19T01:03:01;5.28;;;3.35;;
26474;SDS011;14161;52.270;10.334;2022-08-19T01:05:28;4.28;;;3.35;;
26474;SDS011;14161;52.270;10.334;2022-08-19T01:07:54;6.43;;;4.10;;
26474;SDS011;14161;52.270;10.334;2022-08-19T01:10:24;7.15;;;4.00;;
26474;SDS011;14161;52.270;10.334;2022-08-19T01:12:51;5.93;;;3.78;;
26474;SDS011;14161;52.270;10.334;2022-08-19T01:15:18;6.20;;;3.70;;
26474;SDS011;14161;52.270;10.334;2022-08-19T01:17:46;6.05;;;4.10;;
26474;SDS011;14161;52.270;10.334;2022-08-19T01:20:15;4.72;;;3.80;;
26474;SDS011;14161;52.270;10.334;2022-08-19T01:22:44;5.50;;;3.92;;
26474;SDS011;14161;52.270;10.334;2022-08-19T01:25:15;4.45;;;3.50;;
26474;SDS011;14161;52.270;10.334;2022-08-19T01:27:44;7.35;;;3.65;;
26474;SDS011;14161;52.270;10.334;2022-08-19T01:30:18;4.45;;;3.70;;
26474;SDS011;14161;52.270;10.334;2022-08-19T01:32:47;4.10;;;3.28;;
26474;SDS011;14161;52.270;10.334;2022-08-19T01:35:13;7.05;;;3.58;;
26474;SDS011;14161;52.270;10.334;2022-08-19T01:42:45;5.30;;;3.08;;
26474;SDS011;14161;52.270;10.334;2022-08-19T01:45:12;6.68;;;3.60;;
26474;SDS011;14161;52.270;10.334;2022-08-19T01:47:38;6.05;;;4.15;;
26474;SDS011;14161;52.270;10.334;2022-08-19T01:50:04;4.88;;;3.85;;
26474;SDS011;14161;52.270;10.334;2022-08-19T01:52:31;5.97;;;3.58;;
26474;SDS011;14161;52.270;10.334;2022-08-19T01:54:56;5.35;;;3.72;;
26474;SDS011;14161;52.270;10.334;2022-08-19T01:57:21;6.53;;;4.07;;
26474;SDS011;14161;52.270;10.334;2022-08-19T01:59:47;4.28;;;3.88;;
26474;SDS011;14161;52.270;10.334;2022-08-19T02:02:12;4.93;;;3.60;;
26474;SDS011;14161;52.270;10.334;2022-08-19T02:04:38;6.15;;;3.88;;
26474;SDS011;14161;52.270;10.334;2022-08-19T02:07:04;6.63;;;3.70;;
26474;SDS011;14161;52.270;10.334;2022-08-19T02:09:31;4.65;;;3.75;;
26474;SDS011;14161;52.270;10.334;2022-08-19T02:11:57;8.48;;;4.13;;
26474;SDS011;14161;52.270;10.334;2022-08-19T02:14:23;7.78;;;3.88;;
26474;SDS011;14161;52.270;10.334;2022-08-19T02:16:48;7.15;;;4.55;;
26474;SDS011;14161;52.270;10.334;2022-08-19T02:19:14;5.22;;;3.70;;
26474;SDS011;14161;52.270;10.334;2022-08-19T02:21:39;5.88;;;4.07;;
26474;SDS011;14161;52.270;10.334;2022-08-19T02:24:04;6.03;;;3.90;;
26474;SDS011;14161;52.270;10.334;2022-08-19T02:26:31;5.90;;;4.13;;
26474;SDS011;14161;52.270;10.334;2022-08-19T02:28:57;4.60;;;3.53;;
26474;SDS011;14161;52.270;10.334;2022-08-19T02:31:23;5.78;;;4.07;;
26474;SDS011;14161;52.270;10.334;2022-08-19T02:33:49;5.93;;;4.30;;
26474;SDS011;14161;52.270;10.334;2022-08-19T02:36:16;5.15;;;4.15;;
26474;SDS011;14161;52.270;10.334;2022-08-19T02:38:42;4.60;;;4.05;;
26474;SDS011;14161;52.270;10.334;2022-08-19T02:41:16;7.70;;;4.38;;
26474;SDS011;14161;52.270;10.334;2022-08-19T02:43:46;5.80;;;3.72;;
26474;SDS011;14161;52.270;10.334;2022-08-19T02:46:16;5.20;;;3.83;;
26474;SDS011;14161;52.270;10.334;2022-08-19T02:48:48;5.68;;;3.95;;
26474;SDS011;14161;52.270;10.334;2022-08-19T02:51:22;6.38;;;4.25;;
26474;SDS011;14161;52.270;10.334;2022-08-19T02:53:51;6.43;;;4.10;;
26474;SDS011;14161;52.270;10.334;2022-08-19T02:56:17;5.53;;;3.65;;
26474;SDS011;14161;52.270;10.334;2022-08-19T02:58:43;5.18;;;4.00;;
26474;SDS011;14161;52.270;10.334;2022-08-19T03:01:09;6.50;;;3.50;;
26474;SDS011;14161;52.270;10.334;2022-08-19T03:03:36;5.28;;;3.50;;
26474;SDS011;14161;52.270;10.334;2022-08-19T03:06:03;5.43;;;3.90;;
26474;SDS011;14161;52.270;10.334;2022-08-19T03:08:33;8.07;;;4.30;;
26474;SDS011;14161;52.270;10.334;2022-08-19T03:10:59;7.90;;;4.13;;
26474;SDS011;14161;52.270;10.334;2022-08-19T03:13:24;5.28;;;4.22;;
26474;SDS011;14161;52.270;10.334;2022-08-19T03:15:50;6.15;;;4.82;;
26474;SDS011;14161;52.270;10.334;2022-08-19T03:18:15;5.38;;;4.70;;
26474;SDS011;14161;52.270;10.334;2022-08-19T03:20:45;5.05;;;3.90;;
26474;SDS011;14161;52.270;10.334;2022-08-19T03:23:12;6.95;;;4.38;;
26474;SDS011;14161;52.270;10.334;2022-08-19T03:25:43;7.85;;;4.65;;
26474;SDS011;14161;52.270;10.334;2022-08-19T03:28:10;5.25;;;4.35;;
26474;SDS011;14161;52.270;10.334;2022-08-19T03:30:37;8.15;;;4.40;;
26474;SDS011;14161;52.270;10.334;2022-08-19T03:33:04;6.05;;;4.20;;
26474;SDS011;14161;52.270;10.334;2022-08-19T03:35:30;4.63;;;3.92;;
26474;SDS011;14161;52.270;10.334;2022-08-19T03:37:55;9.30;;;4.82;;
26474;SDS011;14161;52.270;10.334;2022-08-19T03:40:21;6.05;;;5.18;;
26474;SDS011;14161;52.270;10.334;2022-08-19T03:42:47;7.93;;;4.22;;
26474;SDS011;14161;52.270;10.334;2022-08-19T03:45:12;6.00;;;4.30;;
26474;SDS011;14161;52.270;10.334;2022-08-19T03:47:37;5.32;;;4.57;;
26474;SDS011;14161;52.270;10.334;2022-08-19T03:50:03;5.00;;;3.88;;
26474;SDS011;14161;52.270;10.334;2022-08-19T03:52:29;7.78;;;4.13;;
26474;SDS011;14161;52.270;10.334;2022-08-19T03:54:55;6.97;;;4.28;;
26474;SDS011;14161;52.270;10.334;2022-08-19T03:57:20;5.00;;;3.92;;
26474;SDS011;14161;52.270;10.334;2022-08-19T03:59:46;5.50;;;3.58;;
26474;SDS011;14161;52.270;10.334;2022-08-19T04:02:12;5.68;;;3.72;;
26474;SDS011;14161;52.270;10.334;2022-08-19T04:04:38;5.10;;;4.60;;
26474;SDS011;14161;52.270;10.334;2022-08-19T04:07:05;8.25;;;4.32;;
26474;SDS011;14161;52.270;10.334;2022-08-19T04:09:30;7.50;;;4.28;;
26474;SDS011;14161;52.270;10.334;2022-08-19T04:11:56;4.85;;;3.92;;
26474;SDS011;14161;52.270;10.334;2022-08-19T04:14:24;4.30;;;3.78;;
26474;SDS011;14161;52.270;10.334;2022-08-19T04:16:53;5.60;;;3.97;;
26474;SDS011;14161;52.270;10.334;2022-08-19T04:19:19;6.93;;;3.83;;
26474;SDS011;14161;52.270;10.334;2022-08-19T04:21:46;4.88;;;3.78;;
26474;SDS011;14161;52.270;10.334;2022-08-19T04:24:17;4.30;;;3.33;;
26474;SDS011;14161;52.270;10.334;2022-08-19T04:26:43;5.10;;;4.00;;
26474;SDS011;14161;52.270;10.334;2022-08-19T04:29:10;7.45;;;3.75;;
26474;SDS011;14161;52.270;10.334;2022-08-19T04:31:38;6.03;;;3.95;;
26474;SDS011;14161;52.270;10.334;2022-08-19T04:34:05;4.18;;;3.55;;
26474;SDS011;14161;52.270;10.334;2022-08-19T04:36:33;4.60;;;3.85;;
26474;SDS011;14161;52.270;10.334;2022-08-19T04:39:00;4.35;;;3.95;;
26474;SDS011;14161;52.270;10.334;2022-08-19T04:41:32;4.93;;;3.80;;
26474;SDS011;14161;52.270;10.334;2022-08-19T04:46:48;3.65;;;3.22;;
26474;SDS011;14161;52.270;10.334;2022-08-19T04:49:14;6.95;;;4.32;;
26474;SDS011;14161;52.270;10.334;2022-08-19T04:51:42;4.25;;;3.75;;
26474;SDS011;14161;52.270;10.334;2022-08-19T04:54:08;5.28;;;4.55;;
26474;SDS011;14161;52.270;10.334;2022-08-19T04:56:33;6.50;;;4.28;;
26474;SDS011;14161;52.270;10.334;2022-08-19T04:58:59;5.68;;;4.75;;
26474;SDS011;14161;52.270;10.334;2022-08-19T05:01:28;5.15;;;4.40;;
26474;SDS011;14161;52.270;10.334;2022-08-19T05:03:55;6.85;;;4.88;;
26474;SDS011;14161;52.270;10.334;2022-08-19T05:06:21;5.57;;;4.65;;
26474;SDS011;14161;52.270;10.334;2022-08-19T05:08:47;5.85;;;4.57;;
26474;SDS011;14161;52.270;10.334;2022-08-19T05:11:18;4.85;;;4.30;;
26474;SDS011;14161;52.270;10.334;2022-08-19T05:13:46;5.38;;;4.30;;
26474;SDS011;14161;52.270;10.334;2022-08-19T05:16:12;6.03;;;4.53;;
26474;SDS011;14161;52.270;10.334;2022-08-19T05:18:38;7.45;;;4.97;;
26474;SDS011;14161;52.270;10.334;2022-08-19T05:21:23;6.30;;;4.30;;
26474;SDS011;14161;52.270;10.334;2022-08-19T05:24:07;7.05;;;3.78;;
26474;SDS011;14161;52.270;10.334;2022-08-19T05:26:34;4.80;;;4.20;;
26474;SDS011;14161;52.270;10.334;2022-08-19T05:29:04;6.57;;;4.05;;
26474;SDS011;14161;52.270;10.334;2022-08-19T05:31:30;6.10;;;4.18;;
26474;SDS011;14161;52.270;10.334;2022-08-19T05:33:56;6.38;;;3.90;;
26474;SDS011;14161;52.270;10.334;2022-08-19T05:36:27;6.25;;;5.07;;
26474;SDS011;14161;52.270;10.334;2022-08-19T05:38:53;6.03;;;4.38;;
26474;SDS011;14161;52.270;10.334;2022-08-19T05:41:20;4.43;;;3.60;;
26474;SDS011;14161;52.270;10.334;2022-08-19T05:43:46;5.90;;;4.70;;
26474;SDS011;14161;52.270;10.334;2022-08-19T05:46:16;4.90;;;3.95;;
26474;SDS011;14161;52.270;10.334;2022-08-19T05:48:43;8.23;;;4.80;;
26474;SDS011;14161;52.270;10.334;2022-08-19T05:51:09;4.30;;;3.80;;
26474;SDS011;14161;52.270;10.334;2022-08-19T05:53:35;4.93;;;4.20;;
26474;SDS011;14161;52.270;10.334;2022-08-19T05:56:08;6.03;;;3.70;;
26474;SDS011;14161;52.270;10.334;2022-08-19T05:58:36;8.50;;;3.95;;
26474;SDS011;14161;52.270;10.334;2022-08-19T06:01:03;6.22;;;4.00;;
26474;SDS011;14161;52.270;10.334;2022-08-19T06:03:34;6.28;;;4.13;;
26474;SDS011;14161;52.270;10.334;2022-08-19T06:06:02;5.97;;;4.70;;
26474;SDS011;14161;52.270;10.334;2022-08-19T06:08:29;3.88;;;3.47;;
26474;SDS011;14161;52.270;10.334;2022-08-19T06:10:54;6.35;;;4.00;;
26474;SDS011;14161;52.270;10.334;2022-08-19T06:13:20;4.97;;;3.78;;
26474;SDS011;14161;52.270;10.334;2022-08-19T06:15:46;6.35;;;4.00;;
26474;SDS011;14161;52.270;10.334;2022-08-19T06:18:12;5.90;;;4.80;;
26474;SDS011;14161;52.270;10.334;2022-08-19T06:20:38;5.95;;;4.30;;
26474;SDS011;14161;52.270;10.334;2022-08-19T06:23:04;5.55;;;3.67;;
26474;SDS011;14161;52.270;10.334;2022-08-19T06:25:30;7.90;;;4.40;;
26474;SDS011;14161;52.270;10.334;2022-08-19T06:27:55;4.78;;;3.70;;
26474;SDS011;14161;52.270;10.334;2022-08-19T06:30:21;5.78;;;3.08;;
26474;SDS011;14161;52.270;10.334;2022-08-19T06:32:46;6.75;;;3.95;;
26474;SDS011;14161;52.270;10.334;2022-08-19T06:35:12;4.68;;;3.08;;
26474;SDS011;14161;52.270;10.334;2022-08-19T06:37:39;4.47;;;3.35;;
26474;SDS011;14161;52.270;10.334;2022-08-19T06:40:05;6.28;;;3.10;;
26474;SDS011;14161;52.270;10.334;2022-08-19T06:42:33;4.00;;;3.20;;
26474;SDS011;14161;52.270;10.334;2022-08-19T06:45:00;4.20;;;2.72;;
26474;SDS011;14161;52.270;10.334;2022-08-19T06:47:27;4.10;;;3.00;;
26474;SDS011;14161;52.270;10.334;2022-08-19T06:49:54;4.00;;;2.42;;
26474;SDS011;14161;52.270;10.334;2022-08-19T06:52:27;4.38;;;2.50;;
26474;SDS011;14161;52.270;10.334;2022-08-19T06:54:54;3.67;;;2.33;;
26474;SDS011;14161;52.270;10.334;2022-08-19T06:57:21;4.50;;;2.83;;
26474;SDS011;14161;52.270;10.334;2022-08-19T06:59:46;4.35;;;2.50;;
26474;SDS011;14161;52.270;10.334;2022-08-19T07:02:12;2.90;;;2.38;;
26474;SDS011;14161;52.270;10.334;2022-08-19T07:04:37;4.90;;;2.92;;
26474;SDS011;14161;52.270;10.334;2022-08-19T07:07:13;2.58;;;2.30;;
26474;SDS011;14161;52.270;10.334;2022-08-19T07:09:40;4.32;;;2.28;;
26474;SDS011;14161;52.270;10.334;2022-08-19T07:12:08;3.28;;;2.25;;
26474;SDS011;14161;52.270;10.334;2022-08-19T07:14:36;4.22;;;2.70;;
26474;SDS011;14161;52.270;10.334;2022-08-19T07:17:04;3.22;;;2.53;;
26474;SDS011;14161;52.270;10.334;2022-08-19T07:19:31;4.65;;;2.55;;
26474;SDS011;14161;52.270;10.334;2022-08-19T07:21:57;3.45;;;2.22;;
26474;SDS011;14161;52.270;10.334;2022-08-19T07:24:31;2.83;;;2.10;;
26474;SDS011;14161;52.270;10.334;2022-08-19T07:27:21;2.67;;;2.15;;
26474;SDS011;14161;52.270;10.334;2022-08-19T07:29:47;2.88;;;1.85;;
26474;SDS011;14161;52.270;10.334;2022-08-19T07:32:12;3.38;;;2.38;;
26474;SDS011;14161;52.270;10.334;2022-08-19T07:34:38;2.38;;;1.70;;
26474;SDS011;14161;52.270;10.334;2022-08-19T07:37:04;2.45;;;1.90;;
26474;SDS011;14161;52.270;10.334;2022-08-19T07:39:32;2.58;;;2.05;;
26474;SDS011;14161;52.270;10.334;2022-08-19T07:42:05;2.40;;;1.98;;
26474;SDS011;14161;52.270;10.334;2022-08-19T07:44:47;2.22;;;1.70;;
26474;SDS011;14161;52.270;10.334;2022-08-19T07:47:28;3.08;;;2.15;;
26474;SDS011;14161;52.270;10.334;2022-08-19T07:49:55;3.45;;;2.00;;
26474;SDS011;14161;52.270;10.334;2022-08-19T07:52:21;2.65;;;2.00;;
26474;SDS011;14161;52.270;10.334;2022-08-19T07:54:47;4.20;;;2.40;;
26474;SDS011;14161;52.270;10.334;2022-08-19T07:57:12;2.25;;;2.00;;
26474;SDS011;14161;52.270;10.334;2022-08-19T07:59:39;2.38;;;2.17;;
26474;SDS011;14161;52.270;10.334;2022-08-19T08:02:05;3.75;;;2.17;;
26474;SDS011;14161;52.270;10.334;2022-08-19T08:04:31;5.32;;;1.95;;
26474;SDS011;14161;52.270;10.334;2022-08-19T08:07:15;2.28;;;2.00;;
26474;SDS011;14161;52.270;10.334;2022-08-19T08:09:59;2.35;;;2.13;;
26474;SDS011;14161;52.270;10.334;2022-08-19T08:12:30;3.75;;;2.25;;
26474;SDS011;14161;52.270;10.334;2022-08-19T08:15:05;2.45;;;2.08;;
26474;SDS011;14161;52.270;10.334;2022-08-19T08:17:32;2.70;;;1.80;;
26474;SDS011;14161;52.270;10.334;2022-08-19T08:19:58;2.50;;;2.00;;
26474;SDS011;14161;52.270;10.334;2022-08-19T08:22:25;2.42;;;1.88;;
26474;SDS011;14161;52.270;10.334;2022-08-19T08:25:11;3.17;;;2.10;;
26474;SDS011;14161;52.270;10.334;2022-08-19T08:27:41;2.15;;;1.92;;
26474;SDS011;14161;52.270;10.334;2022-08-19T08:30:09;3.33;;;2.38;;
26474;SDS011;14161;52.270;10.334;2022-08-19T08:32:37;3.42;;;2.33;;
26474;SDS011;14161;52.270;10.334;2022-08-19T08:35:04;3.80;;;2.30;;
26474;SDS011;14161;52.270;10.334;2022-08-19T08:37:30;4.30;;;2.50;;
26474;SDS011;14161;52.270;10.334;2022-08-19T08:43:04;3.40;;;2.45;;
26474;SDS011;14161;52.270;10.334;2022-08-19T08:45:32;3.40;;;2.60;;
26474;SDS011;14161;52.270;10.334;2022-08-19T08:48:00;5.65;;;2.40;;
26474;SDS011;14161;52.270;10.334;2022-08-19T08:50:32;3.05;;;2.42;;
26474;SDS011;14161;52.270;10.334;2022-08-19T08:53:00;3.55;;;2.95;;
26474;SDS011;14161;52.270;10.334;2022-08-19T08:55:27;3.83;;;2.50;;
26474;SDS011;14161;52.270;10.334;2022-08-19T09:01:08;5.10;;;2.80;;
26474;SDS011;14161;52.270;10.334;2022-08-19T09:03:36;5.05;;;3.20;;
26474;SDS011;14161;52.270;10.334;2022-08-19T09:06:14;4.68;;;2.97;;
26474;SDS011;14161;52.270;10.334;2022-08-19T09:17:26;3.95;;;3.15;;
26474;SDS011;14161;52.270;10.334;2022-08-19T09:20:00;5.35;;;2.92;;
26474;SDS011;14161;52.270;10.334;2022-08-19T09:22:29;2.97;;;2.67;;
26474;SDS011;14161;52.270;10.334;2022-08-19T09:24:55;3.20;;;2.80;;
26474;SDS011;14161;52.270;10.334;2022-08-19T09:27:21;3.65;;;2.80;;
26474;SDS011;14161;52.270;10.334;2022-08-19T09:29:49;4.05;;;3.05;;
26474;SDS011;14161;52.270;10.334;2022-08-19T09:32:15;4.70;;;3.03;;
26474;SDS011;14161;52.270;10.334;2022-08-19T09:34:41;2.92;;;2.28;;
26474;SDS011;14161;52.270;10.334;2022-08-19T09:37:08;3.13;;;2.38;;
26474;SDS011;14161;52.270;10.334;2022-08-19T09:39:34;3.03;;;2.72;;
26474;SDS011;14161;52.270;10.334;2022-08-19T09:41:59;3.75;;;2.95;;
26474;SDS011;14161;52.270;10.334;2022-08-19T09:44:25;3.30;;;2.90;;
26474;SDS011;14161;52.270;10.334;2022-08-19T09:46:50;3.67;;;2.47;;
26474;SDS011;14161;52.270;10.334;2022-08-19T09:49:17;3.17;;;2.88;;
26474;SDS011;14161;52.270;10.334;2022-08-19T09:51:44;3.03;;;2.72;;
26474;SDS011;14161;52.270;10.334;2022-08-19T09:54:09;2.78;;;2.33;;
26474;SDS011;14161;52.270;10.334;2022-08-19T09:56:35;2.95;;;2.58;;
26474;SDS011;14161;52.270;10.334;2022-08-19T09:59:01;2.58;;;2.38;;
26474;SDS011;14161;52.270;10.334;2022-08-19T10:01:29;3.65;;;2.35;;
26474;SDS011;14161;52.270;10.334;2022-08-19T10:03:56;3.78;;;2.47;;
26474;SDS011;14161;52.270;10.334;2022-08-19T10:06:24;6.32;;;2.70;;
26474;SDS011;14161;52.270;10.334;2022-08-19T10:08:51;2.88;;;2.60;;
26474;SDS011;14161;52.270;10.334;2022-08-19T10:11:18;3.17;;;2.88;;
26474;SDS011;14161;52.270;10.334;2022-08-19T10:13:45;2.95;;;2.65;;
26474;SDS011;14161;52.270;10.334;2022-08-19T10:16:13;4.18;;;2.90;;
26474;SDS011;14161;52.270;10.334;2022-08-19T10:18:41;2.67;;;2.20;;
26474;SDS011;14161;52.270;10.334;2022-08-19T10:21:16;3.45;;;2.70;;
26474;SDS011;14161;52.270;10.334;2022-08-19T10:23:50;3.95;;;2.33;;
26474;SDS011;14161;52.270;10.334;2022-08-19T10:26:18;6.13;;;3.03;;
26474;SDS011;14161;52.270;10.334;2022-08-19T10:28:46;3.17;;;2.25;;
26474;SDS011;14161;52.270;10.334;2022-08-19T10:31:13;4.82;;;3.60;;
26474;SDS011;14161;52.270;10.334;2022-08-19T10:33:40;3.72;;;3.00;;
26474;SDS011;14161;52.270;10.334;2022-08-19T10:36:08;5.40;;;2.33;;
26474;SDS011;14161;52.270;10.334;2022-08-19T10:38:40;2.70;;;2.47;;
26474;SDS011;14161;52.270;10.334;2022-08-19T10:41:13;3.50;;;2.72;;
26474;SDS011;14161;52.270;10.334;2022-08-19T10:43:41;3.88;;;2.67;;
26474;SDS011;14161;52.270;10.334;2022-08-19T10:46:07;5.28;;;3.00;;
26474;SDS011;14161;52.270;10.334;2022-08-19T10:48:34;4.28;;;3.28;;
26474;SDS011;14161;52.270;10.334;2022-08-19T10:51:00;4.95;;;2.90;;
26474;SDS011;14161;52.270;10.334;2022-08-19T10:53:45;3.42;;;2.78;;
26474;SDS011;14161;52.270;10.334;2022-08-19T10:56:10;3.33;;;2.78;;
26474;SDS011;14161;52.270;10.334;2022-08-19T10:58:54;4.25;;;3.05;;
26474;SDS011;14161;52.270;10.334;2022-08-19T11:01:21;3.10;;;2.67;;
26474;SDS011;14161;52.270;10.334;2022-08-19T11:03:47;4.03;;;3.42;;
26474;SDS011;14161;52.270;10.334;2022-08-19T11:06:12;2.90;;;2.30;;
26474;SDS011;14161;52.270;10.334;2022-08-19T11:08:38;3.30;;;3.00;;
26474;SDS011;14161;52.270;10.334;2022-08-19T11:11:04;2.33;;;2.13;;
26474;SDS011;14161;52.270;10.334;2022-08-19T11:13:31;2.92;;;2.33;;
26474;SDS011;14161;52.270;10.334;2022-08-19T11:16:05;2.17;;;1.98;;
26474;SDS011;14161;52.270;10.334;2022-08-19T11:18:34;3.00;;;2.17;;
26474;SDS011;14161;52.270;10.334;2022-08-19T11:21:11;2.58;;;2.38;;
26474;SDS011;14161;52.270;10.334;2022-08-19T11:23:44;2.50;;;2.30;;
26474;SDS011;14161;52.270;10.334;2022-08-19T11:26:15;2.60;;;2.40;;
26474;SDS011;14161;52.270;10.334;2022-08-19T11:28:41;3.67;;;2.58;;
26474;SDS011;14161;52.270;10.334;2022-08-19T11:31:11;3.67;;;2.35;;
26474;SDS011;14161;52.270;10.334;2022-08-19T11:33:37;3.45;;;3.00;;
26474;SDS011;14161;52.270;10.334;2022-08-19T11:36:03;3.63;;;2.92;;
26474;SDS011;14161;52.270;10.334;2022-08-19T11:38:28;2.78;;;2.47;;
26474;SDS011;14161;52.270;10.334;2022-08-19T11:40:59;3.17;;;2.60;;
26474;SDS011;14161;52.270;10.334;2022-08-19T11:43:26;2.70;;;2.50;;
26474;SDS011;14161;52.270;10.334;2022-08-19T11:45:52;2.53;;;2.33;;
26474;SDS011;14161;52.270;10.334;2022-08-19T11:48:19;3.92;;;2.70;;
26474;SDS011;14161;52.270;10.334;2022-08-19T11:50:51;3.33;;;2.28;;
26474;SDS011;14161;52.270;10.334;2022-08-19T11:53:18;2.85;;;2.60;;
26474;SDS011;14161;52.270;10.334;2022-08-19T11:55:45;2.80;;;2.45;;
26474;SDS011;14161;52.270;10.334;2022-08-19T11:58:12;2.28;;;2.05;;
26474;SDS011;14161;52.270;10.334;2022-08-19T12:00:42;2.80;;;2.55;;
26474;SDS011;14161;52.270;10.334;2022-08-19T12:03:10;2.90;;;2.20;;
26474;SDS011;14161;52.270;10.334;2022-08-19T12:05:37;3.17;;;2.78;;
26474;SDS011;14161;52.270;10.334;2022-08-19T12:08:03;3.00;;;2.70;;
26474;SDS011;14161;52.270;10.334;2022-08-19T12:10:28;4.00;;;2.95;;
26474;SDS011;14161;52.270;10.334;2022-08-19T12:12:54;3.47;;;2.70;;
26474;SDS011;14161;52.270;10.334;2022-08-19T12:15:20;3.08;;;2.78;;
26474;SDS011;14161;52.270;10.334;2022-08-19T12:17:45;3.05;;;2.55;;
26474;SDS011;14161;52.270;10.334;2022-08-19T12:20:12;2.42;;;2.22;;
26474;SDS011;14161;52.270;10.334;2022-08-19T12:22:38;4.07;;;2.47;;
26474;SDS011;14161;52.270;10.334;2022-08-19T12:25:06;2.75;;;2.55;;
26474;SDS011;14161;52.270;10.334;2022-08-19T12:27:33;3.17;;;2.80;;
26474;SDS011;14161;52.270;10.334;2022-08-19T12:30:00;2.53;;;2.30;;
26474;SDS011;14161;52.270;10.334;2022-08-19T12:32:26;3.97;;;2.53;;
26474;SDS011;14161;52.270;10.334;2022-08-19T12:34:51;3.90;;;2.67;;
26474;SDS011;14161;52.270;10.334;2022-08-19T12:37:17;5.13;;;2.25;;
26474;SDS011;14161;52.270;10.334;2022-08-19T12:39:43;3.45;;;2.22;;
26474;SDS011;14161;52.270;10.334;2022-08-19T12:42:12;2.45;;;2.25;;
26474;SDS011;14161;52.270;10.334;2022-08-19T12:44:39;2.72;;;2.42;;
26474;SDS011;14161;52.270;10.334;2022-08-19T12:47:06;4.53;;;2.65;;
26474;SDS011;14161;52.270;10.334;2022-08-19T12:49:33;2.97;;;2.67;;
26474;SDS011;14161;52.270;10.334;2022-08-19T12:52:03;4.03;;;2.50;;
26474;SDS011;14161;52.270;10.334;2022-08-19T12:54:29;4.13;;;2.30;;
26474;SDS011;14161;52.270;10.334;2022-08-19T12:56:56;2.50;;;2.30;;
26474;SDS011;14161;52.270;10.334;2022-08-19T12:59:22;2.90;;;2.10;;
26474;SDS011;14161;52.270;10.334;2022-08-19T13:01:48;3.45;;;2.38;;
26474;SDS011;14161;52.270;10.334;2022-08-19T13:04:13;3.17;;;2.88;;
26474;SDS011;14161;52.270;10.334;2022-08-19T13:06:41;2.95;;;2.50;;
26474;SDS011;14161;52.270;10.334;2022-08-19T13:09:08;2.42;;;2.22;;
26474;SDS011;14161;52.270;10.334;2022-08-19T13:11:37;2.38;;;2.17;;
26474;SDS011;14161;52.270;10.334;2022-08-19T13:14:03;5.80;;;2.20;;
26474;SDS011;14161;52.270;10.334;2022-08-19T13:16:28;2.08;;;1.90;;
26474;SDS011;14161;52.270;10.334;2022-08-19T13:18:55;4.07;;;2.00;;
26474;SDS011;14161;52.270;10.334;2022-08-19T13:21:22;2.42;;;2.15;;
26474;SDS011;14161;52.270;10.334;2022-08-19T13:23:50;4.10;;;2.28;;
26474;SDS011;14161;52.270;10.334;2022-08-19T13:26:16;5.70;;;2.22;;
26474;SDS011;14161;52.270;10.334;2022-08-19T13:28:42;2.75;;;2.03;;
26474;SDS011;14161;52.270;10.334;2022-08-19T13:31:28;2.13;;;1.92;;
26474;SDS011;14161;52.270;10.334;2022-08-19T13:34:15;4.07;;;2.45;;
26474;SDS011;14161;52.270;10.334;2022-08-19T13:36:43;3.25;;;2.08;;
26474;SDS011;14161;52.270;10.334;2022-08-19T13:39:08;4.38;;;2.33;;
26474;SDS011;14161;52.270;10.334;2022-08-19T13:41:34;3.47;;;2.30;;
26474;SDS011;14161;52.270;10.334;2022-08-19T13:44:01;3.25;;;2.00;;
26474;SDS011;14161;52.270;10.334;2022-08-19T13:46:28;2.40;;;2.20;;
26474;SDS011;14161;52.270;10.334;2022-08-19T13:48:54;3.00;;;2.35;;
26474;SDS011;14161;52.270;10.334;2022-08-19T13:51:20;3.92;;;2.40;;
26474;SDS011;14161;52.270;10.334;2022-08-19T13:53:45;2.40;;;2.20;;
26474;SDS011;14161;52.270;10.334;2022-08-19T13:56:12;2.25;;;1.83;;
26474;SDS011;14161;52.270;10.334;2022-08-19T13:58:39;3.83;;;1.95;;
26474;SDS011;14161;52.270;10.334;2022-08-19T14:01:05;2.20;;;2.03;;
26474;SDS011;14161;52.270;10.334;2022-08-19T14:03:31;3.55;;;1.83;;
26474;SDS011;14161;52.270;10.334;2022-08-19T14:05:59;3.60;;;2.10;;
26474;SDS011;14161;52.270;10.334;2022-08-19T14:08:25;4.63;;;2.25;;
26474;SDS011;14161;52.270;10.334;2022-08-19T14:10:52;1.95;;;1.85;;
26474;SDS011;14161;52.270;10.334;2022-08-19T14:13:19;3.72;;;2.25;;
26474;SDS011;14161;52.270;10.334;2022-08-19T14:15:46;2.67;;;2.20;;
26474;SDS011;14161;52.270;10.334;2022-08-19T14:18:12;4.50;;;1.80;;
26474;SDS011;14161;52.270;10.334;2022-08-19T14:20:39;3.50;;;1.80;;
26474;SDS011;14161;52.270;10.334;2022-08-19T14:23:05;2.50;;;2.30;;
26474;SDS011;14161;52.270;10.334;2022-08-19T14:25:30;2.15;;;2.00;;
26474;SDS011;14161;52.270;10.334;2022-08-19T14:27:56;2.45;;;2.13;;
26474;SDS011;14161;52.270;10.334;2022-08-19T14:30:24;2.67;;;2.47;;
26474;SDS011;14161;52.270;10.334;2022-08-19T14:32:53;2.42;;;2.20;;
26474;SDS011;14161;52.270;10.334;2022-08-19T14:35:20;3.25;;;1.77;;
26474;SDS011;14161;52.270;10.334;2022-08-19T14:37:47;2.25;;;2.05;;
26474;SDS011;14161;52.270;10.334;2022-08-19T14:40:15;3.65;;;2.00;;
26474;SDS011;14161;52.270;10.334;2022-08-19T14:42:41;2.35;;;2.03;;
26474;SDS011;14161;52.270;10.334;2022-08-19T14:45:07;1.98;;;1.77;;
26474;SDS011;14161;52.270;10.334;2022-08-19T14:47:34;1.73;;;1.63;;
26474;SDS011;14161;52.270;10.334;2022-08-19T14:49:59;2.95;;;1.90;;
26474;SDS011;14161;52.270;10.334;2022-08-19T14:52:25;2.60;;;2.20;;
26474;SDS011;14161;52.270;10.334;2022-08-19T14:54:51;2.30;;;2.10;;
26474;SDS011;14161;52.270;10.334;2022-08-19T14:57:16;1.90;;;1.70;;
26474;SDS011;14161;52.270;10.334;2022-08-19T14:59:42;2.00;;;1.80;;